WAT1910 EGSS-LFLC
Flight info
| Callsign | WAT1910 |
|---|---|
| Flight time | 1h 7m |
| Altitude | 33000 |
| Route | NUGBO M183 SILVA Q41 COWLY UL612 VEULE DCT KOTAP UM728 KETEX DCT KOTIS A3 ATRID |
| Aircraft | A20N/M-SDE2E3FGHIRWXY/LB1 |
Departure
| Time | 2026-04-14 17:18 |
|---|---|
| Airport | London Stansted Airport (EGSS) |
Arrival
| Time | 2026-04-14 18:25 |
|---|---|
| Airport | Clermont-Ferrand Auvergne airport (LFLC) |
| Time | Latitude | Longitude | Altitude | Speed | Heading |
|---|---|---|---|---|---|
| 2026-04-14 16:48 | 51.88871 | 0.25382 | 354 ft | 0 kts | 43° |
| 2026-04-14 17:08 | 51.88868 | 0.25377 | 343 ft | 1 kts | 43° |
| 2026-04-14 17:08 | 51.88863 | 0.25369 | 357 ft | 1 kts | 43° |
| 2026-04-14 17:08 | 51.88857 | 0.25360 | 354 ft | 1 kts | 43° |
| 2026-04-14 17:09 | 51.88851 | 0.25352 | 350 ft | 1 kts | 43° |
| 2026-04-14 17:09 | 51.88845 | 0.25343 | 350 ft | 1 kts | 43° |
| 2026-04-14 17:09 | 51.88840 | 0.25335 | 351 ft | 1 kts | 43° |
| 2026-04-14 17:09 | 51.88834 | 0.25326 | 353 ft | 1 kts | 43° |
| 2026-04-14 17:10 | 51.88829 | 0.25318 | 350 ft | 1 kts | 32° |
| 2026-04-14 17:10 | 51.88822 | 0.25312 | 352 ft | 1 kts | 11° |
| 2026-04-14 17:10 | 51.88814 | 0.25310 | 354 ft | 1 kts | 349° |
| 2026-04-14 17:10 | 51.88807 | 0.25313 | 354 ft | 1 kts | 330° |
| 2026-04-14 17:11 | 51.88800 | 0.25319 | 351 ft | 1 kts | 322° |
| 2026-04-14 17:11 | 51.88799 | 0.25321 | 350 ft | 0 kts | 320° |
| 2026-04-14 17:13 | 51.88803 | 0.25311 | 354 ft | 3 kts | 308° |
| 2026-04-14 17:13 | 51.88824 | 0.25271 | 350 ft | 7 kts | 311° |
| 2026-04-14 17:13 | 51.88866 | 0.25197 | 352 ft | 11 kts | 314° |
| 2026-04-14 17:14 | 51.88927 | 0.25095 | 343 ft | 11 kts | 313° |
| 2026-04-14 17:14 | 51.88971 | 0.25009 | 351 ft | 11 kts | 296° |
| 2026-04-14 17:14 | 51.88995 | 0.24884 | 348 ft | 13 kts | 310° |
| 2026-04-14 17:14 | 51.89036 | 0.24813 | 350 ft | 10 kts | 320° |
| 2026-04-14 17:15 | 51.89094 | 0.24847 | 342 ft | 11 kts | 41° |
| 2026-04-14 17:15 | 51.89159 | 0.24946 | 352 ft | 15 kts | 43° |
| 2026-04-14 17:15 | 51.89232 | 0.25077 | 345 ft | 11 kts | 58° |
| 2026-04-14 17:15 | 51.89263 | 0.25159 | 351 ft | 10 kts | 58° |
| 2026-04-14 17:16 | 51.89320 | 0.25255 | 344 ft | 13 kts | 36° |
| 2026-04-14 17:16 | 51.89382 | 0.25214 | 348 ft | 9 kts | 313° |
| 2026-04-14 17:16 | 51.89406 | 0.25171 | 346 ft | 1 kts | 313° |
| 2026-04-14 17:16 | 51.89413 | 0.25159 | 346 ft | 3 kts | 313° |
| 2026-04-14 17:17 | 51.89440 | 0.25112 | 345 ft | 8 kts | 313° |
| 2026-04-14 17:17 | 51.89492 | 0.25011 | 334 ft | 12 kts | 292° |
| 2026-04-14 17:17 | 51.89483 | 0.24948 | 333 ft | 0 kts | 223° |
| 2026-04-14 17:18 | 51.89374 | 0.24787 | 336 ft | 56 kts | 222° |
| 2026-04-14 17:18 | 51.88925 | 0.24117 | 336 ft | 116 kts | 223° |
| 2026-04-14 17:18 | 51.88223 | 0.23055 | 423 ft | 151 kts | 221° |
| 2026-04-14 17:18 | 51.87484 | 0.21912 | 1130 ft | 147 kts | 221° |
| 2026-04-14 17:19 | 51.86729 | 0.20787 | 1819 ft | 148 kts | 220° |
| 2026-04-14 17:19 | 51.85957 | 0.19645 | 2369 ft | 157 kts | 221° |
| 2026-04-14 17:19 | 51.85105 | 0.18378 | 2796 ft | 176 kts | 220° |
| 2026-04-14 17:19 | 51.84151 | 0.16952 | 3222 ft | 199 kts | 221° |
| 2026-04-14 17:20 | 51.83215 | 0.15153 | 3739 ft | 225 kts | 243° |
| 2026-04-14 17:20 | 51.82807 | 0.12524 | 3983 ft | 254 kts | 261° |
| 2026-04-14 17:20 | 51.82586 | 0.09686 | 4000 ft | 255 kts | 261° |
| 2026-04-14 17:20 | 51.82372 | 0.06868 | 3997 ft | 257 kts | 261° |
| 2026-04-14 17:21 | 51.82152 | 0.03998 | 4159 ft | 259 kts | 261° |
| 2026-04-14 17:21 | 51.81932 | 0.01098 | 4854 ft | 260 kts | 261° |
| 2026-04-14 17:21 | 51.81714 | -0.01677 | 6032 ft | 258 kts | 261° |
| 2026-04-14 17:21 | 51.81487 | -0.04557 | 7019 ft | 263 kts | 261° |
| 2026-04-14 17:22 | 51.81248 | -0.07514 | 8045 ft | 267 kts | 261° |
| 2026-04-14 17:22 | 51.81008 | -0.10507 | 9077 ft | 272 kts | 261° |
| 2026-04-14 17:22 | 51.80765 | -0.13570 | 9705 ft | 276 kts | 261° |
| 2026-04-14 17:22 | 51.80521 | -0.16662 | 9954 ft | 278 kts | 261° |
| 2026-04-14 17:23 | 51.80275 | -0.19728 | 10147 ft | 283 kts | 261° |
| 2026-04-14 17:23 | 51.79952 | -0.22994 | 10361 ft | 306 kts | 252° |
| 2026-04-14 17:23 | 51.78967 | -0.26138 | 10862 ft | 321 kts | 236° |
| 2026-04-14 17:23 | 51.77722 | -0.29177 | 11743 ft | 326 kts | 236° |
| 2026-04-14 17:24 | 51.76460 | -0.32242 | 12649 ft | 331 kts | 236° |
| 2026-04-14 17:24 | 51.75175 | -0.35354 | 13534 ft | 336 kts | 236° |
| 2026-04-14 17:24 | 51.73866 | -0.38510 | 14364 ft | 340 kts | 236° |
| 2026-04-14 17:24 | 51.72529 | -0.41685 | 15176 ft | 344 kts | 236° |
| 2026-04-14 17:25 | 51.71156 | -0.44883 | 15763 ft | 350 kts | 236° |
| 2026-04-14 17:25 | 51.69759 | -0.48093 | 16003 ft | 351 kts | 236° |
| 2026-04-14 17:25 | 51.68335 | -0.51330 | 16602 ft | 355 kts | 236° |
| 2026-04-14 17:25 | 51.66893 | -0.54549 | 17500 ft | 356 kts | 236° |
| 2026-04-14 17:26 | 51.65411 | -0.57777 | 18251 ft | 361 kts | 236° |
| 2026-04-14 17:26 | 51.63914 | -0.60972 | 18919 ft | 364 kts | 236° |
| 2026-04-14 17:26 | 51.62362 | -0.64226 | 19579 ft | 369 kts | 236° |
| 2026-04-14 17:26 | 51.60779 | -0.67494 | 20219 ft | 373 kts | 236° |
| 2026-04-14 17:27 | 51.59164 | -0.70790 | 20863 ft | 376 kts | 236° |
| 2026-04-14 17:27 | 51.57563 | -0.74018 | 21500 ft | 380 kts | 236° |
| 2026-04-14 17:27 | 51.55898 | -0.77350 | 22132 ft | 384 kts | 236° |
| 2026-04-14 17:27 | 51.54208 | -0.80706 | 22754 ft | 388 kts | 236° |
| 2026-04-14 17:28 | 51.52515 | -0.84048 | 23375 ft | 392 kts | 236° |
| 2026-04-14 17:28 | 51.50787 | -0.87447 | 23946 ft | 396 kts | 236° |
| 2026-04-14 17:28 | 51.49039 | -0.90883 | 24483 ft | 398 kts | 236° |
| 2026-04-14 17:28 | 51.47282 | -0.94328 | 25032 ft | 400 kts | 236° |
| 2026-04-14 17:29 | 51.45534 | -0.97745 | 25518 ft | 403 kts | 236° |
| 2026-04-14 17:29 | 51.43668 | -1.01141 | 26007 ft | 411 kts | 227° |
| 2026-04-14 17:29 | 51.41308 | -1.03841 | 26501 ft | 424 kts | 213° |
| 2026-04-14 17:29 | 51.38518 | -1.05564 | 26944 ft | 438 kts | 199° |
| 2026-04-14 17:30 | 51.35454 | -1.06186 | 27360 ft | 451 kts | 185° |
| 2026-04-14 17:30 | 51.32297 | -1.05641 | 27816 ft | 463 kts | 171° |
| 2026-04-14 17:30 | 51.29271 | -1.03987 | 28214 ft | 472 kts | 157° |
| 2026-04-14 17:30 | 51.26420 | -1.01291 | 28605 ft | 480 kts | 146° |
| 2026-04-14 17:31 | 51.23757 | -0.98043 | 28975 ft | 484 kts | 144° |
| 2026-04-14 17:31 | 51.21341 | -0.95012 | 29347 ft | 487 kts | 143° |
| 2026-04-14 17:31 | 51.18713 | -0.91710 | 29711 ft | 490 kts | 143° |
| 2026-04-14 17:31 | 51.16020 | -0.88347 | 30076 ft | 493 kts | 144° |
| 2026-04-14 17:32 | 51.13302 | -0.84979 | 30398 ft | 496 kts | 144° |
| 2026-04-14 17:32 | 51.10573 | -0.81615 | 30752 ft | 498 kts | 144° |
| 2026-04-14 17:32 | 51.07824 | -0.78237 | 31087 ft | 500 kts | 144° |
| 2026-04-14 17:32 | 51.05063 | -0.74851 | 31457 ft | 502 kts | 144° |
| 2026-04-14 17:33 | 51.02300 | -0.71469 | 31878 ft | 501 kts | 144° |
| 2026-04-14 17:33 | 50.99536 | -0.68090 | 32317 ft | 501 kts | 144° |
| 2026-04-14 17:33 | 50.96783 | -0.64729 | 32762 ft | 500 kts | 144° |
| 2026-04-14 17:34 | 50.91786 | -0.58642 | 33094 ft | 498 kts | 144° |
| 2026-04-14 17:34 | 50.86293 | -0.51971 | 33127 ft | 498 kts | 144° |
| 2026-04-14 17:35 | 50.80794 | -0.45314 | 33111 ft | 498 kts | 144° |
| 2026-04-14 17:35 | 50.75677 | -0.39138 | 33128 ft | 498 kts | 144° |
| 2026-04-14 17:36 | 50.70177 | -0.32516 | 33109 ft | 498 kts | 144° |
| 2026-04-14 17:36 | 50.64707 | -0.25951 | 33123 ft | 498 kts | 144° |
| 2026-04-14 17:37 | 50.59187 | -0.19346 | 33106 ft | 498 kts | 144° |
| 2026-04-14 17:37 | 50.53665 | -0.12758 | 33125 ft | 498 kts | 144° |
| 2026-04-14 17:38 | 50.48130 | -0.06174 | 33116 ft | 499 kts | 144° |
| 2026-04-14 17:38 | 50.42596 | 0.00390 | 33127 ft | 499 kts | 144° |
| 2026-04-14 17:39 | 50.37090 | 0.06900 | 33121 ft | 499 kts | 144° |
| 2026-04-14 17:39 | 50.31542 | 0.13442 | 33130 ft | 499 kts | 144° |
| 2026-04-14 17:40 | 50.25989 | 0.19969 | 33118 ft | 499 kts | 144° |
| 2026-04-14 17:40 | 50.20530 | 0.26344 | 33138 ft | 499 kts | 146° |
| 2026-04-14 17:41 | 50.14788 | 0.32268 | 33120 ft | 498 kts | 148° |
| 2026-04-14 17:41 | 50.09001 | 0.38216 | 33135 ft | 498 kts | 148° |
| 2026-04-14 17:42 | 50.03210 | 0.44146 | 33125 ft | 498 kts | 148° |
| 2026-04-14 17:42 | 49.97412 | 0.50061 | 33132 ft | 498 kts | 148° |
| 2026-04-14 17:43 | 49.91657 | 0.55915 | 33121 ft | 499 kts | 148° |
| 2026-04-14 17:43 | 49.85848 | 0.61805 | 33134 ft | 499 kts | 148° |
| 2026-04-14 17:44 | 49.80149 | 0.67950 | 33124 ft | 500 kts | 144° |
| 2026-04-14 17:44 | 49.74527 | 0.74281 | 33144 ft | 500 kts | 145° |
| 2026-04-14 17:45 | 49.68880 | 0.80554 | 33133 ft | 500 kts | 145° |
| 2026-04-14 17:45 | 49.63258 | 0.86742 | 33151 ft | 500 kts | 145° |
| 2026-04-14 17:46 | 49.57584 | 0.92962 | 33141 ft | 501 kts | 145° |
| 2026-04-14 17:46 | 49.51900 | 0.99176 | 33155 ft | 501 kts | 145° |
| 2026-04-14 17:47 | 49.46313 | 1.05266 | 33146 ft | 501 kts | 145° |
| 2026-04-14 17:47 | 49.40620 | 1.11454 | 33162 ft | 501 kts | 145° |
| 2026-04-14 17:48 | 49.34962 | 1.17588 | 33150 ft | 502 kts | 145° |
| 2026-04-14 17:48 | 49.29257 | 1.23754 | 33159 ft | 501 kts | 145° |
| 2026-04-14 17:49 | 49.23552 | 1.29902 | 33152 ft | 501 kts | 145° |
| 2026-04-14 17:49 | 49.17846 | 1.36034 | 33185 ft | 501 kts | 144° |
| 2026-04-14 17:50 | 49.12175 | 1.42110 | 33175 ft | 501 kts | 144° |
| 2026-04-14 17:50 | 49.06460 | 1.48216 | 33056 ft | 503 kts | 144° |
| 2026-04-14 17:50 | 49.03584 | 1.51280 | 33187 ft | 507 kts | 144° |
| 2026-04-14 17:51 | 49.00684 | 1.54367 | 33184 ft | 508 kts | 144° |
| 2026-04-14 17:51 | 48.94892 | 1.60519 | 33184 ft | 507 kts | 144° |
| 2026-04-14 17:52 | 48.89138 | 1.66615 | 33186 ft | 508 kts | 144° |
| 2026-04-14 17:52 | 48.83974 | 1.72070 | 33191 ft | 508 kts | 144° |
| 2026-04-14 17:53 | 48.78172 | 1.78183 | 33189 ft | 508 kts | 144° |
| 2026-04-14 17:53 | 48.72365 | 1.84285 | 33185 ft | 508 kts | 143° |
| 2026-04-14 17:54 | 48.66597 | 1.90327 | 33184 ft | 507 kts | 143° |
| 2026-04-14 17:54 | 48.60793 | 1.96389 | 33185 ft | 507 kts | 143° |
| 2026-04-14 17:55 | 48.54979 | 2.02446 | 33186 ft | 507 kts | 143° |
| 2026-04-14 17:55 | 48.49166 | 2.08483 | 33183 ft | 507 kts | 143° |
| 2026-04-14 17:56 | 48.43384 | 2.14472 | 33183 ft | 508 kts | 143° |
| 2026-04-14 17:56 | 48.37564 | 2.20482 | 33187 ft | 508 kts | 143° |
| 2026-04-14 17:57 | 48.31737 | 2.26447 | 33184 ft | 508 kts | 146° |
| 2026-04-14 17:57 | 48.25371 | 2.31089 | 33183 ft | 511 kts | 160° |
| 2026-04-14 17:58 | 48.18508 | 2.33925 | 33181 ft | 512 kts | 165° |
| 2026-04-14 17:58 | 48.11697 | 2.36753 | 33189 ft | 512 kts | 161° |
| 2026-04-14 17:59 | 48.04930 | 2.40135 | 33194 ft | 513 kts | 161° |
| 2026-04-14 17:59 | 47.98149 | 2.43514 | 33208 ft | 519 kts | 161° |
| 2026-04-14 18:00 | 47.91200 | 2.46959 | 33203 ft | 535 kts | 161° |
| 2026-04-14 18:00 | 47.80497 | 2.52241 | 33200 ft | 548 kts | 161° |
| 2026-04-14 18:01 | 47.73226 | 2.55817 | 33195 ft | 552 kts | 161° |
| 2026-04-14 18:01 | 47.66217 | 2.59251 | 33210 ft | 527 kts | 160° |
| 2026-04-14 18:02 | 47.62782 | 2.60930 | 33200 ft | 512 kts | 160° |
| 2026-04-14 18:02 | 47.59405 | 2.62581 | 33195 ft | 513 kts | 160° |
| 2026-04-14 18:02 | 47.52578 | 2.65915 | 33196 ft | 517 kts | 160° |
| 2026-04-14 18:03 | 47.45795 | 2.69215 | 33190 ft | 516 kts | 160° |
| 2026-04-14 18:03 | 47.42385 | 2.70870 | 32912 ft | 514 kts | 160° |
| 2026-04-14 18:03 | 47.38987 | 2.72517 | 32264 ft | 515 kts | 160° |
| 2026-04-14 18:04 | 47.35580 | 2.74166 | 31457 ft | 516 kts | 160° |
| 2026-04-14 18:04 | 47.32156 | 2.75821 | 30537 ft | 519 kts | 160° |
| 2026-04-14 18:04 | 47.28711 | 2.77484 | 29528 ft | 521 kts | 160° |
| 2026-04-14 18:04 | 47.25343 | 2.79370 | 28774 ft | 514 kts | 151° |
| 2026-04-14 18:05 | 47.22341 | 2.82061 | 28326 ft | 497 kts | 139° |
| 2026-04-14 18:05 | 47.19870 | 2.85349 | 28064 ft | 477 kts | 128° |
| 2026-04-14 18:05 | 47.17696 | 2.88938 | 27807 ft | 465 kts | 127° |
| 2026-04-14 18:05 | 47.15554 | 2.92484 | 27347 ft | 463 kts | 127° |
| 2026-04-14 18:06 | 47.13409 | 2.95992 | 26800 ft | 460 kts | 128° |
| 2026-04-14 18:06 | 47.11257 | 2.99431 | 26257 ft | 455 kts | 128° |
| 2026-04-14 18:06 | 47.09114 | 3.02813 | 25722 ft | 450 kts | 129° |
| 2026-04-14 18:06 | 47.06990 | 3.06153 | 25170 ft | 445 kts | 129° |
| 2026-04-14 18:07 | 47.04886 | 3.09460 | 24620 ft | 441 kts | 129° |
| 2026-04-14 18:07 | 47.02835 | 3.12690 | 24046 ft | 438 kts | 129° |
| 2026-04-14 18:07 | 47.00773 | 3.15935 | 23508 ft | 432 kts | 129° |
| 2026-04-14 18:07 | 46.98735 | 3.19140 | 22960 ft | 426 kts | 129° |
| 2026-04-14 18:08 | 46.96730 | 3.22291 | 22427 ft | 420 kts | 129° |
| 2026-04-14 18:08 | 46.94752 | 3.25395 | 21905 ft | 414 kts | 129° |
| 2026-04-14 18:08 | 46.92797 | 3.28458 | 21387 ft | 409 kts | 130° |
| 2026-04-14 18:08 | 46.90874 | 3.31470 | 20874 ft | 404 kts | 130° |
| 2026-04-14 18:09 | 46.88963 | 3.34461 | 20366 ft | 399 kts | 130° |
| 2026-04-14 18:09 | 46.87065 | 3.37394 | 19857 ft | 396 kts | 134° |
| 2026-04-14 18:09 | 46.84873 | 3.39693 | 19369 ft | 396 kts | 152° |
| 2026-04-14 18:09 | 46.82293 | 3.40960 | 18862 ft | 394 kts | 170° |
| 2026-04-14 18:10 | 46.79565 | 3.41214 | 18335 ft | 391 kts | 179° |
| 2026-04-14 18:10 | 46.76863 | 3.41196 | 17818 ft | 386 kts | 180° |
| 2026-04-14 18:10 | 46.74192 | 3.41148 | 17316 ft | 381 kts | 180° |
| 2026-04-14 18:10 | 46.71555 | 3.41125 | 16809 ft | 377 kts | 180° |
| 2026-04-14 18:11 | 46.68945 | 3.41132 | 16326 ft | 373 kts | 179° |
| 2026-04-14 18:11 | 46.66365 | 3.41158 | 15842 ft | 369 kts | 179° |
| 2026-04-14 18:11 | 46.63845 | 3.41194 | 15365 ft | 365 kts | 179° |
| 2026-04-14 18:11 | 46.61317 | 3.41234 | 14952 ft | 361 kts | 179° |
| 2026-04-14 18:12 | 46.58761 | 3.41275 | 14574 ft | 375 kts | 179° |
| 2026-04-14 18:12 | 46.56152 | 3.41316 | 14199 ft | 372 kts | 179° |
| 2026-04-14 18:12 | 46.53583 | 3.41357 | 13799 ft | 366 kts | 179° |
| 2026-04-14 18:12 | 46.51050 | 3.41396 | 13423 ft | 366 kts | 179° |
| 2026-04-14 18:13 | 46.48506 | 3.41603 | 13047 ft | 365 kts | 174° |
| 2026-04-14 18:13 | 46.45988 | 3.41961 | 12681 ft | 363 kts | 174° |
| 2026-04-14 18:13 | 46.43514 | 3.42309 | 12516 ft | 351 kts | 174° |
| 2026-04-14 18:13 | 46.41161 | 3.42637 | 12385 ft | 338 kts | 174° |
| 2026-04-14 18:14 | 46.38870 | 3.42955 | 12256 ft | 325 kts | 174° |
| 2026-04-14 18:14 | 46.36650 | 3.43262 | 11955 ft | 318 kts | 174° |
| 2026-04-14 18:14 | 46.34454 | 3.43566 | 11539 ft | 316 kts | 174° |
| 2026-04-14 18:14 | 46.32266 | 3.43868 | 11132 ft | 315 kts | 174° |
| 2026-04-14 18:15 | 46.30094 | 3.44168 | 10722 ft | 313 kts | 174° |
| 2026-04-14 18:15 | 46.27928 | 3.44466 | 10333 ft | 312 kts | 174° |
| 2026-04-14 18:15 | 46.25803 | 3.44760 | 9927 ft | 310 kts | 174° |
| 2026-04-14 18:15 | 46.23665 | 3.45054 | 9531 ft | 307 kts | 174° |
| 2026-04-14 18:16 | 46.21550 | 3.45344 | 9158 ft | 304 kts | 174° |
| 2026-04-14 18:16 | 46.19465 | 3.45631 | 8830 ft | 298 kts | 174° |
| 2026-04-14 18:16 | 46.17418 | 3.45912 | 8537 ft | 293 kts | 173° |
| 2026-04-14 18:16 | 46.15387 | 3.46191 | 8245 ft | 293 kts | 173° |
| 2026-04-14 18:17 | 46.13368 | 3.46469 | 7953 ft | 289 kts | 173° |
| 2026-04-14 18:17 | 46.11370 | 3.46743 | 7663 ft | 289 kts | 173° |
| 2026-04-14 18:17 | 46.09370 | 3.47018 | 7381 ft | 287 kts | 173° |
| 2026-04-14 18:17 | 46.07423 | 3.47284 | 7100 ft | 283 kts | 173° |
| 2026-04-14 18:18 | 46.05459 | 3.47553 | 6825 ft | 283 kts | 173° |
| 2026-04-14 18:18 | 46.03498 | 3.47822 | 6391 ft | 285 kts | 173° |
| 2026-04-14 18:18 | 46.01534 | 3.48096 | 6071 ft | 280 kts | 173° |
| 2026-04-14 18:18 | 45.99615 | 3.48443 | 5787 ft | 278 kts | 171° |
| 2026-04-14 18:19 | 45.97695 | 3.48838 | 5502 ft | 277 kts | 171° |
| 2026-04-14 18:19 | 45.95794 | 3.49235 | 5229 ft | 277 kts | 171° |
| 2026-04-14 18:19 | 45.93891 | 3.49622 | 4961 ft | 276 kts | 171° |
| 2026-04-14 18:19 | 45.92022 | 3.49994 | 4676 ft | 272 kts | 171° |
| 2026-04-14 18:20 | 45.90133 | 3.50366 | 4404 ft | 276 kts | 171° |
| 2026-04-14 18:20 | 45.88242 | 3.50734 | 4133 ft | 273 kts | 171° |
| 2026-04-14 18:20 | 45.86373 | 3.51098 | 4015 ft | 269 kts | 171° |
| 2026-04-14 18:20 | 45.84562 | 3.51380 | 3991 ft | 254 kts | 183° |
| 2026-04-14 18:21 | 45.83011 | 3.50565 | 4004 ft | 232 kts | 223° |
| 2026-04-14 18:21 | 45.82110 | 3.48766 | 4011 ft | 222 kts | 249° |
| 2026-04-14 18:21 | 45.81662 | 3.46659 | 4006 ft | 219 kts | 261° |
| 2026-04-14 18:21 | 45.81408 | 3.44518 | 4005 ft | 218 kts | 265° |
| 2026-04-14 18:22 | 45.81195 | 3.42368 | 4003 ft | 218 kts | 264° |
| 2026-04-14 18:22 | 45.80981 | 3.40251 | 4005 ft | 218 kts | 264° |
| 2026-04-14 18:22 | 45.80765 | 3.38101 | 3997 ft | 217 kts | 264° |
| 2026-04-14 18:22 | 45.80551 | 3.35957 | 3971 ft | 217 kts | 264° |
| 2026-04-14 18:23 | 45.80335 | 3.33797 | 3737 ft | 221 kts | 264° |
| 2026-04-14 18:23 | 45.80114 | 3.31574 | 3273 ft | 231 kts | 264° |
| 2026-04-14 18:23 | 45.79884 | 3.29267 | 2729 ft | 235 kts | 264° |
| 2026-04-14 18:23 | 45.79658 | 3.26999 | 2244 ft | 222 kts | 264° |
| 2026-04-14 18:24 | 45.79450 | 3.24895 | 1967 ft | 203 kts | 264° |
| 2026-04-14 18:24 | 45.79263 | 3.23014 | 1682 ft | 184 kts | 264° |
| 2026-04-14 18:24 | 45.79096 | 3.21319 | 1459 ft | 161 kts | 264° |
| 2026-04-14 18:24 | 45.78949 | 3.19820 | 1254 ft | 145 kts | 264° |
| 2026-04-14 18:25 | 45.78815 | 3.18458 | 1097 ft | 130 kts | 263° |
| 2026-04-14 18:25 | 45.78724 | 3.17507 | 1097 ft | 65 kts | 262° |
| 2026-04-14 18:25 | 45.78660 | 3.16906 | 1096 ft | 57 kts | 263° |
| 2026-04-14 18:25 | 45.78613 | 3.16447 | 1097 ft | 29 kts | 261° |
| 2026-04-14 18:26 | 45.78625 | 3.16227 | 1096 ft | 14 kts | 329° |
| 2026-04-14 18:26 | 45.78716 | 3.16154 | 1095 ft | 17 kts | 332° |
| 2026-04-14 18:26 | 45.78753 | 3.16126 | 1094 ft | 2 kts | 332° |
| 2026-04-14 18:26 | 45.78777 | 3.16107 | 1096 ft | 6 kts | 332° |
| 2026-04-14 18:27 | 45.78828 | 3.16069 | 1093 ft | 11 kts | 331° |
| 2026-04-14 18:27 | 45.78864 | 3.15971 | 1095 ft | 10 kts | 274° |
| 2026-04-14 18:27 | 45.78863 | 3.15858 | 1095 ft | 13 kts | 261° |
| 2026-04-14 18:27 | 45.78858 | 3.15818 | 1094 ft | 2 kts | 261° |
| 2026-04-14 18:28 | 45.78861 | 3.15776 | 1094 ft | 5 kts | 295° |
| 2026-04-14 18:28 | 45.78901 | 3.15741 | 1094 ft | 8 kts | 342° |
| 2026-04-14 18:28 | 45.78925 | 3.15735 | 1094 ft | 0 kts | 352° |